Time;durP1;ratioP1;P1;durP2;ratioP2;P2;SDS_P1;SDS_P2;PMS_P1;PMS_P2;Temp;Humidity;BMP_temperature;BMP_pressure;BME280_temperature;BME280_humidity;BME280_pressure;Samples;Min_cycle;Max_cycle;Signal;HPM_P1;HPM_P2
2021/04/18 00:00:55;;;;;;;5.47;4.37;;;9.80;60.00;;;;;;5067641;28;20207;-90
2021/04/18 00:03:20;;;;;;;5.57;4.23;;;9.90;59.70;;;;;;5087058;28;20180;-90
2021/04/18 00:05:46;;;;;;;5.17;4.73;;;9.80;59.80;;;;;;5068666;28;20264;-90
2021/04/18 00:08:12;;;;;;;6.57;4.90;;;9.80;60.10;;;;;;5066717;28;20306;-90
2021/04/18 00:10:40;;;;;;;4.53;4.13;;;9.80;60.50;;;;;;5067831;28;20183;-90
2021/04/18 00:13:08;;;;;;;5.87;4.37;;;9.80;60.00;;;;;;5054791;28;20185;-91
2021/04/18 00:15:34;;;;;;;5.03;4.63;;;9.80;60.30;;;;;;5048426;28;20691;-90
2021/04/18 00:18:00;;;;;;;5.93;5.33;;;9.90;60.50;;;;;;5067942;28;20212;-90
2021/04/18 00:20:26;;;;;;;4.17;3.80;;;9.80;60.70;;;;;;5065180;28;20172;-91
2021/04/18 00:22:52;;;;;;;5.43;3.93;;;9.80;61.00;;;;;;5047039;28;20199;-90
2021/04/18 00:25:20;;;;;;;4.60;4.00;;;9.80;60.60;;;;;;5064815;28;20209;-91
2021/04/18 00:27:46;;;;;;;5.33;4.80;;;9.80;61.50;;;;;;5064037;28;20298;-90
2021/04/18 00:30:15;;;;;;;4.40;4.00;;;9.80;61.50;;;;;;5066279;28;20180;-89
2021/04/18 00:32:41;;;;;;;4.93;4.43;;;9.60;62.30;;;;;;5048500;28;20203;-90
2021/04/18 00:35:08;;;;;;;5.30;4.80;;;9.40;62.90;;;;;;5072145;28;20200;-90
2021/04/18 00:37:34;;;;;;;4.93;4.13;;;9.30;63.40;;;;;;5065420;28;20648;-92
2021/04/18 00:40:00;;;;;;;5.13;4.63;;;9.30;62.90;;;;;;5036130;28;20220;-90
2021/04/18 00:42:26;;;;;;;5.40;4.60;;;9.40;63.30;;;;;;5076727;28;20184;-90
2021/04/18 00:44:52;;;;;;;5.30;4.80;;;9.30;63.70;;;;;;5066701;28;20192;-90
2021/04/18 00:47:18;;;;;;;4.70;4.30;;;9.30;63.10;;;;;;5084640;28;20697;-89
2021/04/18 00:49:45;;;;;;;4.87;4.43;;;9.20;64.10;;;;;;5051440;28;20183;-91
2021/04/18 00:52:11;;;;;;;4.60;4.20;;;9.00;65.30;;;;;;5076150;28;20302;-90
2021/04/18 00:54:37;;;;;;;7.97;4.80;;;8.80;66.50;;;;;;5065289;28;20251;-91
2021/04/18 00:57:05;;;;;;;5.27;4.00;;;8.50;67.90;;;;;;5064817;28;20195;-89
2021/04/18 00:59:31;;;;;;;4.40;3.80;;;8.20;69.20;;;;;;5065410;28;20184;-91
2021/04/18 01:01:57;;;;;;;5.40;3.87;;;8.00;70.30;;;;;;5065259;28;20188;-89
2021/04/18 01:04:22;;;;;;;5.57;4.40;;;8.00;70.20;;;;;;5055571;28;20198;-92
2021/04/18 01:06:48;;;;;;;4.70;4.00;;;8.10;70.20;;;;;;5032708;28;20216;-90
2021/04/18 01:09:14;;;;;;;4.97;4.47;;;8.10;69.40;;;;;;5066163;28;20176;-89
2021/04/18 01:11:39;;;;;;;7.77;4.33;;;8.20;69.00;;;;;;5046698;28;20184;-90
2021/04/18 01:14:05;;;;;;;5.20;4.57;;;8.30;69.10;;;;;;5063366;28;20177;-92
2021/04/18 01:16:31;;;;;;;5.60;4.10;;;8.30;69.00;;;;;;5044805;28;20204;-92
2021/04/18 01:18:57;;;;;;;4.73;4.20;;;8.30;68.20;;;;;;5063967;28;20224;-90
2021/04/18 01:21:22;;;;;;;4.27;3.83;;;8.50;67.40;;;;;;5030512;28;20338;-89
2021/04/18 01:23:48;;;;;;;5.03;4.13;;;8.60;66.60;;;;;;5065581;28;20208;-91
2021/04/18 01:26:14;;;;;;;4.63;4.20;;;8.70;65.60;;;;;;5083554;28;20230;-91
2021/04/18 01:28:41;;;;;;;6.30;4.50;;;8.80;65.00;;;;;;5065823;28;20201;-90
2021/04/18 01:31:07;;;;;;;4.70;4.27;;;8.90;65.20;;;;;;5066217;28;20215;-91
2021/04/18 01:33:33;;;;;;;4.87;4.43;;;9.00;64.50;;;;;;5082879;28;20244;-90
2021/04/18 01:36:01;;;;;;;6.13;4.50;;;9.00;65.20;;;;;;5082818;28;20196;-90
2021/04/18 01:38:27;;;;;;;5.30;4.80;;;9.00;64.70;;;;;;5082777;28;20257;-90
2021/04/18 01:40:53;;;;;;;7.13;4.87;;;9.10;64.50;;;;;;5065114;28;20269;-90
2021/04/18 01:43:19;;;;;;;5.13;4.40;;;9.00;64.80;;;;;;5082212;28;20184;-90
2021/04/18 01:45:48;;;;;;;5.00;4.50;;;8.90;65.30;;;;;;5083454;28;20279;-90
2021/04/18 01:48:15;;;;;;;5.57;4.43;;;8.90;65.40;;;;;;5064159;28;20211;-90
2021/04/18 01:50:45;;;;;;;6.70;5.10;;;8.90;66.20;;;;;;5064689;28;20214;-90
2021/04/18 01:53:11;;;;;;;4.40;4.00;;;8.70;66.90;;;;;;5068024;28;20232;-90
2021/04/18 01:55:37;;;;;;;6.10;4.60;;;8.50;67.30;;;;;;5062409;28;20215;-90
2021/04/18 01:58:07;;;;;;;5.77;4.40;;;8.50;67.50;;;;;;5063351;28;20212;-90
2021/04/18 02:00:33;;;;;;;5.60;4.43;;;8.50;68.20;;;;;;5062884;28;20204;-90
2021/04/18 02:02:59;;;;;;;5.27;4.17;;;8.40;68.60;;;;;;5045353;28;20200;-91
2021/04/18 02:05:28;;;;;;;4.87;4.37;;;8.30;69.40;;;;;;5045250;28;20204;-90
2021/04/18 02:07:54;;;;;;;5.47;4.30;;;8.30;69.90;;;;;;5062569;28;20235;-90
2021/04/18 02:10:19;;;;;;;5.50;4.87;;;8.30;70.00;;;;;;5063145;28;20177;-89
2021/04/18 02:12:46;;;;;;;5.83;4.63;;;8.40;69.90;;;;;;5061766;28;20180;-90
2021/04/18 02:15:13;;;;;;;5.90;5.07;;;8.40;69.40;;;;;;5063005;28;20203;-89
2021/04/18 02:17:39;;;;;;;4.97;4.47;;;8.50;69.30;;;;;;5062903;28;20184;-89
2021/04/18 02:20:06;;;;;;;4.97;4.47;;;8.50;68.90;;;;;;5064226;28;20209;-90
2021/04/18 02:22:33;;;;;;;6.30;4.97;;;8.60;68.50;;;;;;5073236;28;20187;-90
2021/04/18 02:24:59;;;;;;;5.50;4.73;;;8.60;68.30;;;;;;5082865;28;20215;-90
2021/04/18 02:27:27;;;;;;;5.10;4.60;;;8.60;68.10;;;;;;5082397;28;20830;-90
2021/04/18 02:29:54;;;;;;;5.80;5.30;;;8.70;67.90;;;;;;5082800;28;20182;-90
2021/04/18 02:32:20;;;;;;;5.63;5.00;;;8.60;68.30;;;;;;5074392;28;20183;-91
2021/04/18 02:34:47;;;;;;;7.13;5.60;;;8.50;69.10;;;;;;5044190;28;20246;-90
2021/04/18 02:37:12;;;;;;;5.63;5.13;;;8.40;69.80;;;;;;5064310;28;20187;-91
2021/04/18 02:39:38;;;;;;;5.47;4.63;;;8.20;70.60;;;;;;5075389;28;20189;-92
2021/04/18 02:42:04;;;;;;;7.47;5.70;;;8.20;70.50;;;;;;5078039;28;20160;-92
2021/04/18 02:44:30;;;;;;;6.20;5.60;;;8.20;70.60;;;;;;5077737;28;20169;-92
2021/04/18 02:46:57;;;;;;;6.93;5.27;;;8.30;69.80;;;;;;5043690;28;20219;-93
2021/04/18 02:49:22;;;;;;;5.43;4.43;;;8.30;69.70;;;;;;5077399;28;20227;-93
2021/04/18 02:51:48;;;;;;;6.77;4.63;;;8.40;69.80;;;;;;5055702;28;20188;-90
2021/04/18 02:54:14;;;;;;;6.50;4.93;;;8.50;69.40;;;;;;5063390;28;20188;-90
2021/04/18 02:56:39;;;;;;;5.37;4.87;;;8.50;69.30;;;;;;5028069;28;20229;-90
2021/04/18 02:59:05;;;;;;;5.17;4.57;;;8.50;69.30;;;;;;5045595;28;20191;-90
2021/04/18 03:01:31;;;;;;;4.87;4.33;;;8.50;70.20;;;;;;5045433;28;20184;-90
2021/04/18 03:03:57;;;;;;;5.10;4.60;;;8.40;69.20;;;;;;5044627;28;20275;-90
2021/04/18 03:06:23;;;;;;;4.83;4.30;;;8.50;70.20;;;;;;5071012;28;20200;-94
2021/04/18 03:08:49;;;;;;;5.03;4.53;;;8.40;70.40;;;;;;5077233;28;20168;-93
2021/04/18 03:11:17;;;;;;;5.23;4.67;;;8.40;69.30;;;;;;5077361;28;20172;-92
2021/04/18 03:13:43;;;;;;;6.30;5.70;;;8.50;68.90;;;;;;5043463;28;20172;-93
2021/04/18 03:16:09;;;;;;;6.40;5.20;;;8.60;68.70;;;;;;5072149;28;20231;-90
2021/04/18 03:18:35;;;;;;;6.17;5.57;;;8.60;68.50;;;;;;5043951;28;20279;-90
2021/04/18 03:21:00;;;;;;;5.97;4.73;;;8.50;69.10;;;;;;5044203;28;20191;-92
2021/04/18 03:23:26;;;;;;;5.87;4.60;;;8.60;69.00;;;;;;5061624;28;20204;-89
2021/04/18 03:25:52;;;;;;;6.57;4.40;;;8.60;69.90;;;;;;5026668;28;20281;-89
2021/04/18 03:28:18;;;;;;;5.87;5.00;;;8.60;69.40;;;;;;5060917;28;20216;-91
2021/04/18 03:30:44;;;;;;;6.20;4.97;;;8.60;69.80;;;;;;5062899;28;20172;-90
2021/04/18 03:33:10;;;;;;;6.40;4.93;;;8.60;69.50;;;;;;5061397;28;20712;-89
2021/04/18 03:35:35;;;;;;;5.40;4.90;;;8.70;70.20;;;;;;5061723;28;20697;-89
2021/04/18 03:38:03;;;;;;;6.27;5.00;;;8.60;70.80;;;;;;5060901;28;20921;-90
2021/04/18 03:40:29;;;;;;;5.37;4.70;;;8.50;70.60;;;;;;5061080;28;20226;-90
2021/04/18 03:42:55;;;;;;;5.30;4.80;;;8.40;71.10;;;;;;5043950;28;20200;-90
2021/04/18 03:45:22;;;;;;;5.17;4.63;;;8.40;71.00;;;;;;5043506;28;20208;-92
2021/04/18 03:47:48;;;;;;;5.63;5.13;;;8.40;70.80;;;;;;5042685;28;20207;-91
2021/04/18 03:50:14;;;;;;;5.37;4.77;;;8.40;71.00;;;;;;5061883;28;20172;-90
2021/04/18 03:52:40;;;;;;;6.53;5.80;;;8.50;69.90;;;;;;5062926;28;20186;-89
2021/04/18 03:55:06;;;;;;;6.00;5.50;;;8.60;69.50;;;;;;5059819;28;20199;-89
2021/04/18 03:57:32;;;;;;;7.13;5.97;;;8.60;69.80;;;;;;5041792;28;20207;-90
2021/04/18 03:59:58;;;;;;;6.30;5.60;;;8.50;70.20;;;;;;5086049;28;20183;-92
2021/04/18 04:02:23;;;;;;;5.83;5.23;;;8.40;70.50;;;;;;5083882;28;20183;-91
2021/04/18 04:04:49;;;;;;;7.50;5.70;;;8.40;70.70;;;;;;5081551;28;20235;-89
2021/04/18 04:07:15;;;;;;;5.80;5.30;;;8.30;71.00;;;;;;5045144;28;20234;-90
2021/04/18 04:09:41;;;;;;;6.30;5.80;;;8.30;70.30;;;;;;5072310;28;20231;-90
2021/04/18 04:12:07;;;;;;;6.93;6.20;;;8.40;70.30;;;;;;5061391;28;20251;-90
2021/04/18 04:14:32;;;;;;;6.50;5.30;;;8.50;70.00;;;;;;5078996;28;20176;-90
2021/04/18 04:16:58;;;;;;;7.37;6.00;;;8.30;70.10;;;;;;5055799;28;20184;-90
2021/04/18 04:19:24;;;;;;;6.17;5.33;;;8.30;70.60;;;;;;5059946;28;20230;-89
2021/04/18 04:21:49;;;;;;;6.93;6.07;;;8.30;70.50;;;;;;5060094;28;20184;-90
2021/04/18 04:24:15;;;;;;;6.00;5.50;;;8.40;69.80;;;;;;5077631;28;20631;-89
2021/04/18 04:26:41;;;;;;;7.43;6.47;;;8.40;69.40;;;;;;5077527;28;20287;-90
2021/04/18 04:29:07;;;;;;;7.10;6.07;;;8.40;69.20;;;;;;5061153;28;20191;-90
2021/04/18 04:31:32;;;;;;;6.80;5.90;;;8.40;69.00;;;;;;5080721;28;20175;-90
2021/04/18 04:33:58;;;;;;;7.03;5.70;;;8.50;68.70;;;;;;5063401;28;20184;-92
2021/04/18 04:36:24;;;;;;;6.73;6.03;;;8.50;68.60;;;;;;5042854;28;20204;-92
2021/04/18 04:38:50;;;;;;;7.43;6.17;;;8.50;70.20;;;;;;5045226;28;20184;-89
2021/04/18 04:41:16;;;;;;;6.53;5.77;;;8.50;70.30;;;;;;5044676;28;20180;-90
2021/04/18 04:43:45;;;;;;;6.87;5.90;;;8.40;70.10;;;;;;5077165;28;20646;-89
2021/04/18 04:46:11;;;;;;;7.37;5.70;;;8.50;70.10;;;;;;5083154;28;20254;-92
2021/04/18 04:48:37;;;;;;;7.60;5.73;;;8.40;69.70;;;;;;5064784;28;20647;-91
2021/04/18 04:51:05;;;;;;;7.10;5.97;;;8.40;70.00;;;;;;5082560;28;20175;-92
2021/04/18 04:53:31;;;;;;;7.30;6.57;;;8.40;69.70;;;;;;5045304;28;20234;-90
2021/04/18 04:55:57;;;;;;;9.67;6.43;;;8.40;70.00;;;;;;5046197;28;20750;-91
2021/04/18 04:58:22;;;;;;;7.37;6.53;;;8.30;69.90;;;;;;5062282;28;20367;-90
2021/04/18 05:00:48;;;;;;;8.73;6.90;;;8.40;70.30;;;;;;5050628;28;20183;-90
2021/04/18 05:03:14;;;;;;;8.60;6.30;;;8.30;70.50;;;;;;5081885;28;20183;-90
2021/04/18 05:05:39;;;;;;;7.83;6.87;;;8.30;70.60;;;;;;5081290;28;20582;-90
2021/04/18 05:08:06;;;;;;;8.00;7.30;;;8.30;70.70;;;;;;5082087;28;20196;-92
2021/04/18 05:10:32;;;;;;;7.17;6.53;;;8.30;71.00;;;;;;5078815;28;20454;-90
2021/04/18 05:12:58;;;;;;;8.23;7.37;;;8.20;71.40;;;;;;5063091;28;20250;-90
2021/04/18 05:15:24;;;;;;;8.27;7.47;;;8.20;71.30;;;;;;5062162;28;20196;-92
2021/04/18 05:17:50;;;;;;;9.50;8.23;;;8.20;71.70;;;;;;5044538;28;20215;-90
2021/04/18 05:20:17;;;;;;;8.07;6.87;;;8.20;71.80;;;;;;5062602;28;20661;-90
2021/04/18 05:22:43;;;;;;;7.67;6.97;;;8.20;71.30;;;;;;5046518;28;20200;-90
2021/04/18 05:25:11;;;;;;;8.87;7.20;;;8.40;70.60;;;;;;5061353;28;20200;-90
2021/04/18 05:27:37;;;;;;;9.53;8.63;;;8.40;69.70;;;;;;5044171;28;20312;-89
2021/04/18 05:30:04;;;;;;;8.80;7.90;;;8.50;70.70;;;;;;5027138;28;20204;-89
2021/04/18 05:32:30;;;;;;;7.87;7.07;;;8.40;70.80;;;;;;5031077;28;20185;-92
2021/04/18 05:34:56;;;;;;;7.70;7.00;;;8.50;70.50;;;;;;5044278;28;20207;-92
2021/04/18 05:37:22;;;;;;;9.03;6.87;;;8.50;70.30;;;;;;5044114;28;20186;-90
2021/04/18 05:39:47;;;;;;;8.13;7.27;;;8.60;70.50;;;;;;5050758;28;20183;-93
2021/04/18 05:42:13;;;;;;;8.30;7.50;;;8.60;70.90;;;;;;5063979;28;20215;-90
2021/04/18 05:44:39;;;;;;;7.93;6.57;;;8.50;71.70;;;;;;5081782;28;20663;-90
2021/04/18 05:47:04;;;;;;;8.47;7.33;;;8.40;72.20;;;;;;5063346;28;20203;-90
2021/04/18 05:49:30;;;;;;;8.07;7.37;;;8.30;72.50;;;;;;5047420;28;20664;-93
2021/04/18 05:51:56;;;;;;;9.07;7.20;;;8.20;72.70;;;;;;5063738;28;20186;-90
2021/04/18 05:54:22;;;;;;;8.53;7.63;;;8.30;73.00;;;;;;5081026;28;20183;-90
2021/04/18 05:56:47;;;;;;;9.07;7.30;;;8.20;73.40;;;;;;5080799;28;20203;-90
2021/04/18 05:59:16;;;;;;;8.23;7.43;;;8.20;73.50;;;;;;5061602;28;20189;-89
2021/04/18 06:01:42;;;;;;;7.33;6.33;;;8.20;73.40;;;;;;5060668;28;20232;-89
2021/04/18 06:04:07;;;;;;;7.80;7.00;;;8.30;73.20;;;;;;5063682;28;20219;-90
2021/04/18 06:06:33;;;;;;;8.00;6.83;;;8.40;72.50;;;;;;5026351;28;20287;-90
2021/04/18 06:08:59;;;;;;;9.07;7.37;;;8.40;71.60;;;;;;5059635;28;20188;-89
2021/04/18 06:11:25;;;;;;;7.57;6.87;;;8.50;72.00;;;;;;5081875;28;20195;-90
2021/04/18 06:13:51;;;;;;;7.37;6.43;;;8.50;72.00;;;;;;5061816;28;20175;-91
2021/04/18 06:16:17;;;;;;;8.07;7.27;;;8.50;72.10;;;;;;5063248;28;20196;-89
2021/04/18 06:18:43;;;;;;;7.77;7.00;;;8.50;72.30;;;;;;5080317;28;20183;-89
2021/04/18 06:21:09;;;;;;;8.80;7.70;;;8.50;71.80;;;;;;5081471;28;20219;-89
2021/04/18 06:23:35;;;;;;;8.17;7.37;;;8.50;71.60;;;;;;5081381;28;20180;-90
2021/04/18 06:26:01;;;;;;;9.03;7.73;;;8.50;71.20;;;;;;5084363;28;20183;-88
2021/04/18 06:28:27;;;;;;;7.57;6.87;;;8.60;70.80;;;;;;5055533;28;20212;-87
2021/04/18 06:30:52;;;;;;;9.63;7.07;;;8.70;70.00;;;;;;5066590;28;20176;-87
2021/04/18 06:33:19;;;;;;;8.10;7.30;;;8.80;69.70;;;;;;5066032;28;20200;-90
2021/04/18 06:35:45;;;;;;;8.33;7.43;;;9.00;69.10;;;;;;5086668;28;20188;-87
2021/04/18 06:38:12;;;;;;;7.47;6.87;;;9.10;68.10;;;;;;5074419;28;20184;-87
2021/04/18 06:40:38;;;;;;;8.60;7.77;;;9.00;67.20;;;;;;5063897;28;20230;-89
2021/04/18 06:43:12;;;;;;;10.87;8.90;;;9.10;67.60;;;;;;5064997;28;20177;-89
2021/04/18 06:45:43;;;;;;;8.23;7.33;;;8.90;69.00;;;;;;5064929;28;20286;-90
2021/04/18 06:48:12;;;;;;;8.23;7.00;;;9.00;67.60;;;;;;5022625;28;20572;-90
2021/04/18 06:50:39;;;;;;;7.83;7.00;;;9.00;66.40;;;;;;5053713;28;20250;-90
2021/04/18 06:53:04;;;;;;;7.73;6.93;;;9.10;66.30;;;;;;5067106;28;20172;-89
2021/04/18 06:55:30;;;;;;;8.23;7.43;;;9.00;65.70;;;;;;5067760;28;20224;-89
2021/04/18 06:57:56;;;;;;;8.67;7.13;;;9.00;66.60;;;;;;5061057;28;20216;-91
2021/04/18 07:00:22;;;;;;;8.20;7.40;;;9.10;66.10;;;;;;5033385;28;20252;-88
2021/04/18 07:02:48;;;;;;;8.90;6.90;;;9.20;65.30;;;;;;5049900;28;20188;-89
2021/04/18 07:05:15;;;;;;;8.40;7.30;;;9.30;64.70;;;;;;5068956;28;20307;-87
2021/04/18 07:07:44;;;;;;;8.33;7.00;;;9.20;64.40;;;;;;5039097;28;20219;-89
2021/04/18 07:10:24;;;;;;;8.23;6.10;;;9.30;63.90;;;;;;5056622;28;20191;-89
2021/04/18 07:12:49;;;;;;;6.70;6.10;;;9.30;63.50;;;;;;5078834;28;20271;-88
2021/04/18 07:15:39;;;;;;;8.20;6.13;;;9.40;63.10;;;;;;5030650;28;20240;-88
2021/04/18 07:18:06;;;;;;;9.70;6.27;;;9.50;62.50;;;;;;5078341;28;20172;-89
2021/04/18 07:20:32;;;;;;;7.83;6.83;;;9.50;62.30;;;;;;5078108;28;20270;-89
2021/04/18 07:23:23;;;;;;;10.67;8.63;;;9.50;62.10;;;;;;5070711;28;20670;-88
2021/04/18 07:25:49;;;;;;;49.40;39.13;;;9.60;61.80;;;;;;5057725;28;20195;-89
2021/04/18 07:28:26;;;;;;;24.97;22.13;;;9.60;62.30;;;;;;5083668;28;20207;-91
2021/04/18 07:31:00;;;;;;;31.50;25.47;;;9.70;61.50;;;;;;5061255;28;20183;-89
2021/04/18 07:33:26;;;;;;;8.70;7.80;;;9.60;61.70;;;;;;5065071;28;20152;-89
2021/04/18 07:35:52;;;;;;;7.73;6.93;;;9.70;62.20;;;;;;5068636;28;20211;-91
2021/04/18 07:38:24;;;;;;;7.77;6.83;;;9.70;61.80;;;;;;5047679;28;20271;-91
2021/04/18 07:40:58;;;;;;;7.97;7.10;;;9.70;62.10;;;;;;5060760;28;20222;-90
2021/04/18 07:43:24;;;;;;;11.27;7.30;;;9.70;62.40;;;;;;5062643;28;20214;-90
2021/04/18 07:45:52;;;;;;;9.33;7.80;;;9.80;61.50;;;;;;5067475;28;20200;-90
2021/04/18 07:48:19;;;;;;;7.97;6.90;;;9.70;61.40;;;;;;5063160;28;20211;-89
2021/04/18 07:50:48;;;;;;;7.73;6.93;;;9.90;61.40;;;;;;5038941;28;20264;-89
2021/04/18 07:53:18;;;;;;;7.37;6.40;;;10.10;60.60;;;;;;5081855;28;20290;-90
2021/04/18 07:55:45;;;;;;;8.30;7.50;;;10.20;59.40;;;;;;5055545;28;20204;-89
2021/04/18 07:58:12;;;;;;;7.60;6.30;;;10.10;59.50;;;;;;5025433;28;20226;-89
2021/04/18 08:00:38;;;;;;;7.57;6.87;;;10.20;59.10;;;;;;5043948;28;20250;-87
2021/04/18 08:03:05;;;;;;;8.73;6.87;;;10.30;58.90;;;;;;5057849;28;20180;-87
2021/04/18 08:05:33;;;;;;;8.27;7.03;;;10.40;57.70;;;;;;5051354;28;20279;-87
2021/04/18 08:08:15;;;;;;;12.40;7.10;;;10.40;57.30;;;;;;5064436;28;20208;-86
2021/04/18 08:10:51;;;;;;;8.20;7.40;;;10.50;57.40;;;;;;5046726;28;20245;-87
2021/04/18 08:13:20;;;;;;;7.97;7.10;;;10.50;57.60;;;;;;5070322;28;20192;-87
2021/04/18 08:16:01;;;;;;;8.53;7.07;;;10.50;57.70;;;;;;5084901;28;20210;-87
2021/04/18 08:18:30;;;;;;;8.60;6.77;;;10.60;56.30;;;;;;5054854;28;20184;-88
2021/04/18 08:20:56;;;;;;;9.07;7.27;;;10.60;56.80;;;;;;5054460;28;20196;-86
2021/04/18 08:23:22;;;;;;;8.57;6.50;;;10.80;56.10;;;;;;5053993;28;20192;-85
2021/04/18 08:26:10;;;;;;;7.40;6.60;;;11.00;56.10;;;;;;5040087;28;20303;-88
2021/04/18 08:28:52;;;;;;;7.70;7.00;;;11.00;54.20;;;;;;5080349;28;20234;-87
2021/04/18 08:31:38;;;;;;;7.73;6.50;;;11.10;54.30;;;;;;5080370;28;20301;-85
2021/04/18 08:34:05;;;;;;;8.33;7.30;;;11.30;55.10;;;;;;5072864;28;20203;-87
2021/04/18 08:36:34;;;;;;;8.17;6.83;;;11.30;54.00;;;;;;5053183;28;20200;-86
2021/04/18 08:39:05;;;;;;;8.03;7.23;;;11.40;53.60;;;;;;5055053;28;20203;-87
2021/04/18 08:41:41;;;;;;;13.00;11.60;;;11.50;53.90;;;;;;5069265;28;20185;-86
2021/04/18 08:44:33;;;;;;;9.73;8.70;;;11.80;52.60;;;;;;5071879;28;20219;-87
2021/04/18 08:47:04;;;;;;;7.27;6.53;;;11.70;52.00;;;;;;5081658;28;20219;-87
2021/04/18 08:49:33;;;;;;;7.73;6.53;;;11.60;52.10;;;;;;5070352;28;20170;-87
2021/04/18 08:52:02;;;;;;;8.33;6.17;;;11.70;51.80;;;;;;5045044;28;20253;-86
2021/04/18 08:54:36;;;;;;;7.07;6.13;;;11.60;52.60;;;;;;5031527;28;20188;-87
2021/04/18 08:57:07;;;;;;;8.00;6.03;;;11.50;53.10;;;;;;5078545;28;20184;-87
2021/04/18 08:59:33;;;;;;;7.93;7.13;;;11.40;53.40;;;;;;5053752;28;20192;-88
2021/04/18 09:02:17;;;;;;;8.07;7.27;;;11.40;52.90;;;;;;5041737;28;20184;-89
2021/04/18 09:04:45;;;;;;;9.00;6.83;;;11.20;53.10;;;;;;5050878;28;20727;-88
2021/04/18 09:07:14;;;;;;;7.17;6.47;;;11.20;53.30;;;;;;5062047;28;20250;-88
2021/04/18 09:09:41;;;;;;;7.70;6.10;;;11.10;53.60;;;;;;5047666;28;20200;-88
2021/04/18 09:12:08;;;;;;;7.43;6.53;;;11.20;52.70;;;;;;5060068;28;20191;-88
2021/04/18 09:14:36;;;;;;;6.83;6.10;;;11.30;52.60;;;;;;5071690;28;20184;-88
2021/04/18 09:17:15;;;;;;;9.40;6.53;;;11.30;52.70;;;;;;5030352;28;20698;-88
2021/04/18 09:19:53;;;;;;;8.20;7.00;;;11.20;53.40;;;;;;5063075;28;20191;-88
2021/04/18 09:22:20;;;;;;;7.97;6.43;;;11.20;53.60;;;;;;5053403;28;20246;-88
2021/04/18 09:24:53;;;;;;;6.70;5.90;;;11.20;53.70;;;;;;5052013;28;20203;-88
2021/04/18 09:27:21;;;;;;;7.77;6.77;;;11.30;53.30;;;;;;5050789;28;20227;-88
2021/04/18 09:29:51;;;;;;;9.27;6.67;;;11.30;52.60;;;;;;5055903;28;20251;-89
2021/04/18 09:32:19;;;;;;;8.47;6.80;;;11.20;53.00;;;;;;5057421;28;20180;-88
2021/04/18 09:34:46;;;;;;;8.23;6.77;;;11.00;53.70;;;;;;5053007;28;20192;-87
2021/04/18 09:37:30;;;;;;;7.77;6.33;;;11.20;53.00;;;;;;5069403;28;20189;-88
2021/04/18 09:40:03;;;;;;;7.90;6.70;;;11.30;52.60;;;;;;5063393;28;20180;-88
2021/04/18 09:42:32;;;;;;;8.47;6.70;;;11.30;53.20;;;;;;5069999;28;20198;-89
2021/04/18 09:45:18;;;;;;;7.67;6.93;;;11.30;54.10;;;;;;5058092;28;20279;-89
2021/04/18 09:47:46;;;;;;;8.47;7.57;;;11.40;53.40;;;;;;5071326;28;20199;-89
2021/04/18 09:50:22;;;;;;;9.37;6.97;;;11.40;51.80;;;;;;5030802;28;20211;-89
2021/04/18 09:52:49;;;;;;;6.57;5.97;;;11.40;52.00;;;;;;5082833;28;20191;-88
2021/04/18 09:55:23;;;;;;;8.07;5.90;;;11.20;52.50;;;;;;5028384;28;20208;-90
2021/04/18 09:57:48;;;;;;;8.93;7.23;;;11.30;53.10;;;;;;5060656;28;20195;-87
2021/04/18 10:00:16;;;;;;;9.70;6.80;;;11.40;52.20;;;;;;5069435;28;20188;-88
2021/04/18 10:03:01;;;;;;;9.73;6.77;;;11.40;50.50;;;;;;5041417;28;20188;-88
2021/04/18 10:05:28;;;;;;;9.00;6.93;;;11.50;50.50;;;;;;5064636;28;20200;-87
2021/04/18 10:08:18;;;;;;;8.07;6.60;;;11.80;49.40;;;;;;5044842;28;20232;-88
2021/04/18 10:10:43;;;;;;;9.33;6.73;;;11.70;49.00;;;;;;5061412;28;20226;-88
2021/04/18 10:13:09;;;;;;;7.73;6.87;;;11.60;48.90;;;;;;5061211;28;20529;-87
2021/04/18 10:15:51;;;;;;;8.40;6.83;;;11.40;48.80;;;;;;5073702;28;20435;-88
2021/04/18 10:18:18;;;;;;;8.53;6.03;;;11.30;50.10;;;;;;5080745;28;20198;-88
2021/04/18 10:20:44;;;;;;;9.13;7.40;;;11.40;50.60;;;;;;5080983;28;20192;-88
2021/04/18 10:23:11;;;;;;;12.40;7.70;;;11.40;51.20;;;;;;5062408;28;20684;-88
2021/04/18 10:25:39;;;;;;;11.50;8.00;;;11.50;50.90;;;;;;5063241;28;20203;-87
2021/04/18 10:28:06;;;;;;;9.90;7.50;;;11.40;51.00;;;;;;5065778;28;20216;-88
2021/04/18 10:30:32;;;;;;;10.63;9.10;;;11.40;51.90;;;;;;5070889;28;20183;-88
2021/04/18 10:32:58;;;;;;;10.87;8.83;;;11.60;51.30;;;;;;5088241;28;20207;-88
2021/04/18 10:35:25;;;;;;;13.00;11.10;;;11.50;50.90;;;;;;5091094;28;20179;-89
2021/04/18 10:37:51;;;;;;;14.47;10.63;;;11.40;51.40;;;;;;5096286;28;20206;-87
2021/04/18 10:40:22;;;;;;;13.03;9.80;;;11.40;51.30;;;;;;5059774;28;20185;-88
2021/04/18 10:42:48;;;;;;;12.17;10.23;;;11.50;51.50;;;;;;5067173;28;20225;-88
2021/04/18 10:45:16;;;;;;;10.17;9.00;;;11.60;51.60;;;;;;5067729;28;20223;-88
2021/04/18 10:47:43;;;;;;;9.20;8.30;;;11.60;50.40;;;;;;5048726;28;20208;-88
2021/04/18 10:50:09;;;;;;;11.40;8.70;;;11.60;50.90;;;;;;5065231;28;20181;-87
2021/04/18 10:52:36;;;;;;;11.40;8.93;;;11.70;50.80;;;;;;5067170;28;20181;-87
2021/04/18 10:55:02;;;;;;;10.60;8.73;;;11.70;49.70;;;;;;5068364;28;20211;-89
2021/04/18 10:57:30;;;;;;;8.97;8.07;;;11.50;50.00;;;;;;5075270;28;20195;-88
2021/04/18 10:59:56;;;;;;;12.00;8.67;;;11.50;50.20;;;;;;5088967;23;20236;-88
2021/04/18 11:02:22;;;;;;;9.90;7.67;;;11.50;50.40;;;;;;5039096;28;20166;-88
2021/04/18 11:04:47;;;;;;;9.50;8.50;;;11.50;50.20;;;;;;5049935;28;20186;-89
2021/04/18 11:07:13;;;;;;;10.40;8.47;;;11.60;50.70;;;;;;5028014;28;20276;-88
2021/04/18 11:09:39;;;;;;;9.40;8.50;;;11.50;51.20;;;;;;5048578;28;20236;-89
2021/04/18 11:12:17;;;;;;;10.87;8.13;;;11.40;51.00;;;;;;5047962;28;20237;-89
2021/04/18 11:14:44;;;;;;;12.33;8.43;;;11.30;51.50;;;;;;5036544;28;20225;-88
2021/04/18 11:17:10;;;;;;;10.80;8.60;;;11.50;51.20;;;;;;5048743;28;20181;-89
2021/04/18 11:19:37;;;;;;;12.53;9.30;;;11.60;50.70;;;;;;5016586;28;20519;-88
2021/04/18 11:22:03;;;;;;;8.23;7.43;;;11.70;50.30;;;;;;5040257;28;20176;-89
2021/04/18 11:24:29;;;;;;;9.80;8.80;;;11.70;50.40;;;;;;5025239;28;20213;-89
2021/04/18 11:26:54;;;;;;;16.80;13.37;;;11.70;50.40;;;;;;5039698;28;20212;-89
2021/04/18 11:29:23;;;;;;;10.23;8.80;;;11.70;50.50;;;;;;5042284;28;20223;-89
2021/04/18 11:31:49;;;;;;;10.13;8.37;;;11.80;50.30;;;;;;5009342;28;20189;-89
2021/04/18 11:34:15;;;;;;;10.47;8.37;;;11.90;50.30;;;;;;5025329;28;20246;-89
2021/04/18 11:36:41;;;;;;;9.37;7.53;;;11.80;50.10;;;;;;5042008;28;20215;-88
2021/04/18 11:39:07;;;;;;;9.33;8.00;;;11.90;50.40;;;;;;5022958;28;20171;-89
2021/04/18 11:41:35;;;;;;;13.83;12.30;;;11.90;52.60;;;;;;5041922;28;20207;-90
2021/04/18 11:44:01;;;;;;;11.10;9.47;;;12.10;53.60;;;;;;5038572;28;20201;-88
2021/04/18 11:46:28;;;;;;;9.23;8.33;;;12.20;54.10;;;;;;5005930;28;20202;-88
2021/04/18 11:48:54;;;;;;;10.23;8.43;;;12.20;53.60;;;;;;5047692;28;20198;-88
2021/04/18 11:51:21;;;;;;;9.83;8.53;;;12.20;57.20;;;;;;5043266;28;20184;-89
2021/04/18 11:53:47;;;;;;;9.83;8.47;;;12.20;54.00;;;;;;5040942;28;20199;-88
2021/04/18 11:56:14;;;;;;;10.47;9.13;;;12.00;57.20;;;;;;5045270;28;20231;-88
2021/04/18 11:58:40;;;;;;;10.10;8.87;;;12.10;56.10;;;;;;5028934;28;20200;-89
2021/04/18 12:01:05;;;;;;;10.07;8.73;;;12.20;56.10;;;;;;5060051;28;20305;-88
2021/04/18 12:03:31;;;;;;;11.37;9.47;;;12.10;57.60;;;;;;5046410;28;20204;-89
2021/04/18 12:05:58;;;;;;;11.93;9.33;;;12.00;56.90;;;;;;5010300;28;20270;-88
2021/04/18 12:08:24;;;;;;;12.83;9.23;;;12.10;56.90;;;;;;5029537;28;20213;-89
2021/04/18 12:10:50;;;;;;;10.43;9.33;;;12.20;55.90;;;;;;5029193;28;20270;-87
2021/04/18 12:13:17;;;;;;;10.07;9.07;;;12.20;55.20;;;;;;5056003;28;20179;-88
2021/04/18 12:15:45;;;;;;;20.93;9.70;;;12.30;55.10;;;;;;5046458;28;20215;-88
2021/04/18 12:18:12;;;;;;;10.47;9.33;;;12.40;54.40;;;;;;5047305;28;20182;-88
2021/04/18 12:20:38;;;;;;;10.53;9.53;;;12.50;52.80;;;;;;5010786;28;20201;-89
2021/04/18 12:23:04;;;;;;;11.23;10.07;;;12.50;52.70;;;;;;5047145;28;20204;-90
2021/04/18 12:25:30;;;;;;;11.43;10.03;;;12.70;52.40;;;;;;5044585;28;20211;-88
2021/04/18 12:27:56;;;;;;;15.20;10.87;;;12.50;53.10;;;;;;5045599;28;20418;-88
2021/04/18 12:30:23;;;;;;;11.70;9.87;;;12.70;53.00;;;;;;5045140;28;20183;-88
2021/04/18 12:32:49;;;;;;;19.17;10.97;;;12.90;51.70;;;;;;5014653;28;20188;-88
2021/04/18 12:35:16;;;;;;;13.87;12.13;;;13.20;50.80;;;;;;5040777;28;20223;-89
2021/04/18 12:37:42;;;;;;;12.57;11.27;;;13.10;51.20;;;;;;5027476;28;20222;-90
2021/04/18 12:40:09;;;;;;;13.50;11.40;;;13.30;50.60;;;;;;5040957;28;20245;-89
2021/04/18 12:42:35;;;;;;;12.30;11.00;;;13.50;50.30;;;;;;5034992;28;20253;-88
2021/04/18 12:45:03;;;;;;;12.03;10.83;;;13.80;48.00;;;;;;5026164;28;20201;-87
2021/04/18 12:47:28;;;;;;;11.87;10.77;;;14.10;47.40;;;;;;5025210;28;20212;-89
2021/04/18 12:49:55;;;;;;;11.47;10.37;;;14.10;46.40;;;;;;5035529;28;20185;-87
2021/04/18 12:52:21;;;;;;;12.53;10.63;;;14.10;48.40;;;;;;5032182;28;20520;-87